Trabzon — 9HA2783 — position and weather

sailwx.info

Track history (hours):
 
Tides and Currents Weather Stations Pressure Air Temp Water Temp Dewpoint Dewpoint Depression Visibility Wind Speed Wind Dir Waves Ship Positions

Trabzon

Last reported at 2014-Aug-22 00:33 UTC. Time now 2014-Aug-28 09:26 UTC.
Position N 69°30' E 014°15'.

Length 229 m; draft 7.3 m.

Type: Cargo ship. MMSI: 215679000.

Date/timePositionNaut miles runAvg speedWind from/ knotsBaromVisibWave heightAir tempDewpointWater temp
2014-Aug-22 00:33N 69°30' E 014°15'  
2014-Aug-17 15:33N 53°54' E 004°52'1312.6
2014-Aug-17 14:33N 53°42' E 004°51'1313.0
2014-Aug-17 13:33N 53°29' E 004°45'1313.5
2014-Aug-17 12:33N 53°17' E 004°37'1413.8
2014-Aug-17 11:34N 53°05' E 004°26'1413.8
2014-Aug-17 10:33N 52°52' E 004°17'1413.6
2014-Aug-17 09:33N 52°40' E 004°07'1110.8
2014-Aug-17 08:33N 52°31' E 004°16'1010.3
2014-Aug-17 07:33N 52°28' E 004°32'2 2.3
2014-Aug-17 06:31N 52°28' E 004°36'0 0.0
2014-Aug-17 05:31N 52°28' E 004°36'0 0.0
2014-Aug-17 04:31N 52°28' E 004°36'0 0.0
2014-Aug-17 03:31N 52°28' E 004°36'0 0.0
2014-Aug-17 02:31N 52°28' E 004°36'0 0.0
2014-Aug-17 01:31N 52°28' E 004°36'0 0.0
2014-Aug-17 00:31N 52°28' E 004°36'0 0.0
2014-Aug-16 23:31N 52°28' E 004°36'0 0.0
2014-Aug-16 22:31N 52°28' E 004°36'0 0.0
2014-Aug-16 21:31N 52°28' E 004°36'0 0.0
2014-Aug-16 20:31N 52°28' E 004°36'0 0.0
2014-Aug-16 19:31N 52°28' E 004°36'0 0.0
2014-Aug-16 18:25N 52°28' E 004°36'0 0.0
2014-Aug-16 17:31N 52°28' E 004°36'0 0.0
2014-Aug-16 16:31N 52°28' E 004°36'0 0.0
2014-Aug-16 15:31N 52°28' E 004°36'0 0.0
2014-Aug-16 14:25N 52°28' E 004°36'0 0.0
2014-Aug-16 13:28N 52°28' E 004°36'0 0.0
2014-Aug-16 12:31N 52°28' E 004°36'0 0.0
2014-Aug-16 11:31N 52°28' E 004°36'0 0.0
2014-Aug-16 10:31N 52°28' E 004°36'0 0.0
2014-Aug-16 09:31N 52°28' E 004°36'0 0.0
2014-Aug-16 08:28N 52°28' E 004°36'0 0.0
2014-Aug-16 07:31N 52°28' E 004°36'0 0.0
2014-Aug-16 06:31N 52°28' E 004°36'0 0.0
2014-Aug-16 05:31N 52°28' E 004°36'0 0.0
2014-Aug-16 04:31N 52°28' E 004°36'0 0.0
2014-Aug-16 03:31N 52°28' E 004°36'0 0.0
2014-Aug-16 02:31N 52°28' E 004°36'0 0.0
2014-Aug-16 01:31N 52°28' E 004°36'0 0.0
2014-Aug-16 00:31N 52°28' E 004°36'0 0.0
2014-Aug-15 23:31N 52°28' E 004°36'0 0.0
2014-Aug-15 22:31N 52°28' E 004°36'0 0.0
2014-Aug-15 21:31N 52°28' E 004°36'0 0.0
2014-Aug-15 20:31N 52°28' E 004°36'0 0.0
2014-Aug-15 19:31N 52°28' E 004°36'0 0.0
2014-Aug-15 18:31N 52°28' E 004°36'0 0.0
2014-Aug-15 17:31N 52°28' E 004°36'0 0.0
2014-Aug-15 16:31N 52°28' E 004°36'0 0.0
2014-Aug-15 15:31N 52°28' E 004°36'0 0.0
2014-Aug-15 14:31N 52°28' E 004°36'0 0.0
2014-Aug-15 13:31N 52°28' E 004°36'0 0.0
2014-Aug-15 12:31N 52°28' E 004°36'0 0.0
2014-Aug-15 11:31N 52°28' E 004°36'0 0.0
2014-Aug-15 10:31N 52°28' E 004°36'0 0.0
2014-Aug-15 09:31N 52°28' E 004°36'0 0.0
2014-Aug-15 08:31N 52°28' E 004°36'0 0.0
2014-Aug-15 07:31N 52°28' E 004°36'0 0.0
2014-Aug-15 06:31N 52°28' E 004°36'0 0.0
2014-Aug-15 05:31N 52°28' E 004°36'0 0.0
2014-Aug-15 04:28N 52°28' E 004°36'0 0.0
2014-Aug-15 03:31N 52°28' E 004°36'0 0.0
2014-Aug-15 02:31N 52°28' E 004°36'0 0.0
2014-Aug-15 01:31N 52°28' E 004°36'0 0.0
2014-Aug-15 00:31N 52°28' E 004°36'0 0.0
2014-Aug-14 23:31N 52°28' E 004°36'0 0.0
2014-Aug-14 22:31N 52°28' E 004°36'0 0.0
2014-Aug-14 21:31N 52°28' E 004°36'0 0.0
2014-Aug-14 20:31N 52°28' E 004°36'1 1.0
2014-Aug-14 19:34N 52°28' E 004°34'9 9.0
2014-Aug-14 18:33N 52°28' E 004°19'9 8.6
2014-Aug-14 17:33N 52°27' E 004°05'1 1.0
2014-Aug-14 16:14N 52°27' E 004°03'0 0.1
2014-Aug-14 15:32N 52°27' E 004°03'0 0.2
2014-Aug-14 14:32N 52°26' E 004°03'0 0.1
2014-Aug-14 13:32N 52°26' E 004°03'0 0.0
2014-Aug-14 12:26N 52°26' E 004°03'0 0.0
2014-Aug-14 11:23N 52°26' E 004°03'0 0.0
2014-Aug-14 10:26N 52°26' E 004°03'0 0.1
2014-Aug-14 09:26N 52°26' E 004°03'0 0.2
2014-Aug-14 08:32N 52°27' E 004°03'0 0.2
2014-Aug-14 07:20N 52°27' E 004°03'0 0.0
2014-Aug-14 05:29N 52°27' E 004°03'0 0.0
2014-Aug-14 03:32N 52°27' E 004°03'0 0.2
2014-Aug-14 02:32N 52°26' E 004°03'0 0.1
2014-Aug-14 01:32N 52°26' E 004°03'0 0.0
2014-Aug-14 00:23N 52°26' E 004°03'0 0.0
2014-Aug-13 23:32N 52°26' E 004°03'0 0.0
2014-Aug-13 22:32N 52°26' E 004°03'0 0.2
2014-Aug-13 21:23N 52°26' E 004°03'0 0.2
2014-Aug-13 20:32N 52°27' E 004°03'0 0.1
2014-Aug-13 19:32N 52°27' E 004°03'0 0.0
2014-Aug-13 18:32N 52°27' E 004°03'0 0.0
2014-Aug-13 17:32N 52°27' E 004°03'0 0.0
2014-Aug-13 16:29N 52°27' E 004°03'0 0.0
2014-Aug-13 15:14N 52°27' E 004°03'0 0.1
2014-Aug-13 14:26N 52°27' E 004°03'0 0.2
2014-Aug-13 13:20N 52°26' E 004°03'0 0.0
2014-Aug-13 12:32N 52°26' E 004°03'0 0.0
2014-Aug-13 11:32N 52°26' E 004°03'0 0.0
2014-Aug-13 10:32N 52°26' E 004°03'0 0.0
2014-Aug-13 09:32N 52°26' E 004°03'0 0.2
2014-Aug-13 08:23N 52°27' E 004°03'0 0.1
2014-Aug-13 07:26N 52°27' E 004°03'0 0.0
2014-Aug-13 05:23N 52°27' E 004°03'0 0.0
2014-Aug-13 03:17N 52°27' E 004°03'0 0.1
2014-Aug-13 02:26N 52°27' E 004°03'0 0.1
2014-Aug-13 01:26N 52°27' E 004°03'0 0.2
2014-Aug-13 00:32N 52°26' E 004°03'0 0.1
2014-Aug-12 23:11N 52°26' E 004°03'0 0.0
2014-Aug-12 22:32N 52°26' E 004°03'0 0.1
2014-Aug-12 21:32N 52°26' E 004°03'0 0.2
2014-Aug-12 20:32N 52°27' E 004°03'0 0.1
2014-Aug-12 19:26N 52°27' E 004°03'0 0.1
2014-Aug-12 18:17N 52°27' E 004°03'0 0.0
2014-Aug-12 17:32N 52°27' E 004°03'0 0.0
2014-Aug-12 16:32N 52°27' E 004°03'0 0.0
2014-Aug-12 15:32N 52°27' E 004°03'0 0.0
2014-Aug-12 14:32N 52°27' E 004°03'0 0.1
2014-Aug-12 13:32N 52°27' E 004°03'0 0.0
2014-Aug-12 12:32N 52°27' E 004°03'0 0.2
2014-Aug-12 11:32N 52°26' E 004°03'0 0.1
2014-Aug-12 10:32N 52°26' E 004°03'0 0.0
2014-Aug-12 09:32N 52°26' E 004°03'0 0.2
2014-Aug-12 08:32N 52°26' E 004°03'0 0.1
2014-Aug-12 07:29N 52°27' E 004°04'0 0.1
2014-Aug-12 06:32N 52°27' E 004°03'0 0.1
2014-Aug-12 05:32N 52°27' E 004°03'0 0.0
2014-Aug-12 04:32N 52°27' E 004°03'0 0.0
2014-Aug-12 03:32N 52°27' E 004°03'0 0.0
2014-Aug-12 02:32N 52°27' E 004°03'0 0.1
2014-Aug-12 01:32N 52°27' E 004°04'  
Track history (hours):
 
Tides and Currents Weather Stations Pressure Air Temp Water Temp Dewpoint Dewpoint Depression Visibility Wind Speed Wind Dir Waves Ship Positions

Trabzon

Last reported at 2014-Aug-22 00:33 UTC. Time now 2014-Aug-28 09:26 UTC.
Position N 69°30' E 014°15'.

Length 229 m; draft 7.3 m.

Type: Cargo ship. MMSI: 215679000.

Date/timePositionNaut miles runAvg speedWind from/ knotsBaromVisibWave heightAir tempDewpointWater temp
2014-Aug-22 00:33N 69°30' E 014°15'  
2014-Aug-17 15:33N 53°54' E 004°52'1312.6
2014-Aug-17 14:33N 53°42' E 004°51'1313.0
2014-Aug-17 13:33N 53°29' E 004°45'1313.5
2014-Aug-17 12:33N 53°17' E 004°37'1413.8
2014-Aug-17 11:34N 53°05' E 004°26'1413.8
2014-Aug-17 10:33N 52°52' E 004°17'1413.6
2014-Aug-17 09:33N 52°40' E 004°07'1110.8
2014-Aug-17 08:33N 52°31' E 004°16'1010.3
2014-Aug-17 07:33N 52°28' E 004°32'2 2.3
2014-Aug-17 06:31N 52°28' E 004°36'0 0.0
2014-Aug-17 05:31N 52°28' E 004°36'0 0.0
2014-Aug-17 04:31N 52°28' E 004°36'0 0.0
2014-Aug-17 03:31N 52°28' E 004°36'0 0.0
2014-Aug-17 02:31N 52°28' E 004°36'0 0.0
2014-Aug-17 01:31N 52°28' E 004°36'0 0.0
2014-Aug-17 00:31N 52°28' E 004°36'0 0.0
2014-Aug-16 23:31N 52°28' E 004°36'0 0.0
2014-Aug-16 22:31N 52°28' E 004°36'0 0.0
2014-Aug-16 21:31N 52°28' E 004°36'0 0.0
2014-Aug-16 20:31N 52°28' E 004°36'0 0.0
2014-Aug-16 19:31N 52°28' E 004°36'0 0.0
2014-Aug-16 18:25N 52°28' E 004°36'0 0.0
2014-Aug-16 17:31N 52°28' E 004°36'0 0.0
2014-Aug-16 16:31N 52°28' E 004°36'0 0.0
2014-Aug-16 15:31N 52°28' E 004°36'0 0.0
2014-Aug-16 14:25N 52°28' E 004°36'0 0.0
2014-Aug-16 13:28N 52°28' E 004°36'0 0.0
2014-Aug-16 12:31N 52°28' E 004°36'0 0.0
2014-Aug-16 11:31N 52°28' E 004°36'0 0.0
2014-Aug-16 10:31N 52°28' E 004°36'0 0.0
2014-Aug-16 09:31N 52°28' E 004°36'0 0.0
2014-Aug-16 08:28N 52°28' E 004°36'0 0.0
2014-Aug-16 07:31N 52°28' E 004°36'0 0.0
2014-Aug-16 06:31N 52°28' E 004°36'0 0.0
2014-Aug-16 05:31N 52°28' E 004°36'0 0.0
2014-Aug-16 04:31N 52°28' E 004°36'0 0.0
2014-Aug-16 03:31N 52°28' E 004°36'0 0.0
2014-Aug-16 02:31N 52°28' E 004°36'0 0.0
2014-Aug-16 01:31N 52°28' E 004°36'0 0.0
2014-Aug-16 00:31N 52°28' E 004°36'0 0.0
2014-Aug-15 23:31N 52°28' E 004°36'0 0.0
2014-Aug-15 22:31N 52°28' E 004°36'0 0.0
2014-Aug-15 21:31N 52°28' E 004°36'0 0.0
2014-Aug-15 20:31N 52°28' E 004°36'0 0.0
2014-Aug-15 19:31N 52°28' E 004°36'0 0.0
2014-Aug-15 18:31N 52°28' E 004°36'0 0.0
2014-Aug-15 17:31N 52°28' E 004°36'0 0.0
2014-Aug-15 16:31N 52°28' E 004°36'0 0.0
2014-Aug-15 15:31N 52°28' E 004°36'0 0.0
2014-Aug-15 14:31N 52°28' E 004°36'0 0.0
2014-Aug-15 13:31N 52°28' E 004°36'0 0.0
2014-Aug-15 12:31N 52°28' E 004°36'0 0.0
2014-Aug-15 11:31N 52°28' E 004°36'0 0.0
2014-Aug-15 10:31N 52°28' E 004°36'0 0.0
2014-Aug-15 09:31N 52°28' E 004°36'0 0.0
2014-Aug-15 08:31N 52°28' E 004°36'0 0.0
2014-Aug-15 07:31N 52°28' E 004°36'0 0.0
2014-Aug-15 06:31N 52°28' E 004°36'0 0.0
2014-Aug-15 05:31N 52°28' E 004°36'0 0.0
2014-Aug-15 04:28N 52°28' E 004°36'0 0.0
2014-Aug-15 03:31N 52°28' E 004°36'0 0.0
2014-Aug-15 02:31N 52°28' E 004°36'0 0.0
2014-Aug-15 01:31N 52°28' E 004°36'0 0.0
2014-Aug-15 00:31N 52°28' E 004°36'0 0.0
2014-Aug-14 23:31N 52°28' E 004°36'0 0.0
2014-Aug-14 22:31N 52°28' E 004°36'0 0.0
2014-Aug-14 21:31N 52°28' E 004°36'0 0.0
2014-Aug-14 20:31N 52°28' E 004°36'1 1.0
2014-Aug-14 19:34N 52°28' E 004°34'9 9.0
2014-Aug-14 18:33N 52°28' E 004°19'9 8.6
2014-Aug-14 17:33N 52°27' E 004°05'1 1.0
2014-Aug-14 16:14N 52°27' E 004°03'0 0.1
2014-Aug-14 15:32N 52°27' E 004°03'0 0.2
2014-Aug-14 14:32N 52°26' E 004°03'0 0.1
2014-Aug-14 13:32N 52°26' E 004°03'0 0.0
2014-Aug-14 12:26N 52°26' E 004°03'0 0.0
2014-Aug-14 11:23N 52°26' E 004°03'0 0.0
2014-Aug-14 10:26N 52°26' E 004°03'0 0.1
2014-Aug-14 09:26N 52°26' E 004°03'0 0.2
2014-Aug-14 08:32N 52°27' E 004°03'0 0.2
2014-Aug-14 07:20N 52°27' E 004°03'0 0.0
2014-Aug-14 05:29N 52°27' E 004°03'0 0.0
2014-Aug-14 03:32N 52°27' E 004°03'0 0.2
2014-Aug-14 02:32N 52°26' E 004°03'0 0.1
2014-Aug-14 01:32N 52°26' E 004°03'0 0.0
2014-Aug-14 00:23N 52°26' E 004°03'0 0.0
2014-Aug-13 23:32N 52°26' E 004°03'0 0.0
2014-Aug-13 22:32N 52°26' E 004°03'0 0.2
2014-Aug-13 21:23N 52°26' E 004°03'0 0.2
2014-Aug-13 20:32N 52°27' E 004°03'0 0.1
2014-Aug-13 19:32N 52°27' E 004°03'0 0.0
2014-Aug-13 18:32N 52°27' E 004°03'0 0.0
2014-Aug-13 17:32N 52°27' E 004°03'0 0.0
2014-Aug-13 16:29N 52°27' E 004°03'0 0.0
2014-Aug-13 15:14N 52°27' E 004°03'0 0.1
2014-Aug-13 14:26N 52°27' E 004°03'0 0.2
2014-Aug-13 13:20N 52°26' E 004°03'0 0.0
2014-Aug-13 12:32N 52°26' E 004°03'0 0.0
2014-Aug-13 11:32N 52°26' E 004°03'0 0.0
2014-Aug-13 10:32N 52°26' E 004°03'0 0.0
2014-Aug-13 09:32N 52°26' E 004°03'0 0.2
2014-Aug-13 08:23N 52°27' E 004°03'0 0.1
2014-Aug-13 07:26N 52°27' E 004°03'0 0.0
2014-Aug-13 05:23N 52°27' E 004°03'0 0.0
2014-Aug-13 03:17N 52°27' E 004°03'0 0.1
2014-Aug-13 02:26N 52°27' E 004°03'0 0.1
2014-Aug-13 01:26N 52°27' E 004°03'0 0.2
2014-Aug-13 00:32N 52°26' E 004°03'0 0.1
2014-Aug-12 23:11N 52°26' E 004°03'0 0.0
2014-Aug-12 22:32N 52°26' E 004°03'0 0.1
2014-Aug-12 21:32N 52°26' E 004°03'0 0.2
2014-Aug-12 20:32N 52°27' E 004°03'0 0.1
2014-Aug-12 19:26N 52°27' E 004°03'0 0.1
2014-Aug-12 18:17N 52°27' E 004°03'0 0.0
2014-Aug-12 17:32N 52°27' E 004°03'0 0.0
2014-Aug-12 16:32N 52°27' E 004°03'0 0.0
2014-Aug-12 15:32N 52°27' E 004°03'0 0.0
2014-Aug-12 14:32N 52°27' E 004°03'0 0.1
2014-Aug-12 13:32N 52°27' E 004°03'0 0.0
2014-Aug-12 12:32N 52°27' E 004°03'0 0.2
2014-Aug-12 11:32N 52°26' E 004°03'0 0.1
2014-Aug-12 10:32N 52°26' E 004°03'0 0.0
2014-Aug-12 09:32N 52°26' E 004°03'0 0.2
2014-Aug-12 08:32N 52°26' E 004°03'0 0.1
2014-Aug-12 07:29N 52°27' E 004°04'0 0.1
2014-Aug-12 06:32N 52°27' E 004°03'0 0.1
2014-Aug-12 05:32N 52°27' E 004°03'0 0.0
2014-Aug-12 04:32N 52°27' E 004°03'0 0.0
2014-Aug-12 03:32N 52°27' E 004°03'0 0.0
2014-Aug-12 02:32N 52°27' E 004°03'0 0.1
2014-Aug-12 01:32N 52°27' E 004°04'  

Dump ship's entire track history